createdAt,value
2018-03-31T00:01:35.162Z,17.43
2018-03-31T00:04:02.990Z,15.20
2018-03-31T00:06:30.776Z,14.98
2018-03-31T00:08:58.616Z,16.08
2018-03-31T00:11:26.399Z,16.13
2018-03-31T00:13:54.227Z,15.18
2018-03-31T00:16:22.014Z,15.53
2018-03-31T00:18:50.484Z,14.70
2018-03-31T00:21:18.315Z,18.03
2018-03-31T00:23:46.115Z,16.20
2018-03-31T00:26:13.934Z,15.38
2018-03-31T00:28:41.742Z,16.40
2018-03-31T00:31:09.567Z,15.38
2018-03-31T00:33:37.367Z,16.05
2018-03-31T00:36:05.191Z,14.10
2018-03-31T00:38:32.985Z,16.37
2018-03-31T00:41:00.810Z,16.83
2018-03-31T00:43:28.612Z,15.45
2018-03-31T00:45:56.436Z,16.67
2018-03-31T00:48:24.237Z,15.82
2018-03-31T00:50:52.061Z,15.63
2018-03-31T00:53:20.118Z,15.10
2018-03-31T00:55:47.942Z,16.30
2018-03-31T00:58:15.735Z,15.30
2018-03-31T01:00:43.554Z,17.50
2018-03-31T01:03:11.355Z,17.23
2018-03-31T01:05:39.168Z,15.95
2018-03-31T01:08:06.963Z,16.37
2018-03-31T01:10:35.126Z,15.93
2018-03-31T01:13:02.946Z,16.40
2018-03-31T01:15:30.758Z,15.67
2018-03-31T01:17:58.567Z,15.17
2018-03-31T01:20:26.380Z,15.00
2018-03-31T01:22:54.170Z,14.77
2018-03-31T01:25:21.990Z,16.87
2018-03-31T01:27:50.023Z,14.90
2018-03-31T01:30:17.843Z,18.50
2018-03-31T01:32:45.634Z,16.57
2018-03-31T01:35:13.458Z,16.45
2018-03-31T01:37:41.246Z,16.70
2018-03-31T01:40:09.070Z,15.93
2018-03-31T01:42:36.864Z,16.10
2018-03-31T01:45:05.099Z,15.40
2018-03-31T01:47:34.934Z,16.37
2018-03-31T01:50:02.754Z,16.17
2018-03-31T01:52:30.551Z,15.38
2018-03-31T01:54:58.378Z,15.73
2018-03-31T01:57:26.201Z,15.15
2018-03-31T01:59:53.990Z,16.53
2018-03-31T02:02:21.804Z,14.40
2018-03-31T02:04:49.722Z,16.37
2018-03-31T02:07:17.534Z,15.15
2018-03-31T02:09:45.335Z,16.27
2018-03-31T02:12:13.151Z,17.20
2018-03-31T02:14:40.942Z,15.43
2018-03-31T02:17:08.760Z,16.83
2018-03-31T02:19:36.559Z,16.33
2018-03-31T02:22:04.374Z,16.45
2018-03-31T02:24:32.162Z,16.55
2018-03-31T02:26:59.986Z,16.75
2018-03-31T02:29:27.782Z,16.65
2018-03-31T02:31:55.612Z,16.73
2018-03-31T02:34:23.399Z,17.62
2018-03-31T02:36:51.209Z,17.48
2018-03-31T02:39:19.004Z,16.62
2018-03-31T02:41:46.815Z,17.35
2018-03-31T02:44:14.608Z,16.55
2018-03-31T02:46:42.422Z,18.33
2018-03-31T02:49:10.215Z,18.02
2018-03-31T02:51:38.032Z,17.10
2018-03-31T02:54:05.822Z,17.55
2018-03-31T02:56:33.630Z,16.85
2018-03-31T02:59:01.431Z,19.30
2018-03-31T03:01:29.235Z,16.90
2018-03-31T03:03:57.031Z,17.75
2018-03-31T03:06:24.850Z,17.77
2018-03-31T03:08:52.625Z,19.58
2018-03-31T03:11:20.429Z,17.40
2018-03-31T03:13:48.219Z,16.08
2018-03-31T03:16:15.746Z,18.02
2018-03-31T03:18:43.246Z,18.75
2018-03-31T03:21:10.774Z,19.27
2018-03-31T03:23:38.286Z,17.85
2018-03-31T03:26:05.811Z,19.40
2018-03-31T03:28:33.313Z,17.80
2018-03-31T03:31:00.842Z,19.30
2018-03-31T03:33:28.347Z,17.08
2018-03-31T03:35:55.883Z,18.17
2018-03-31T03:38:23.394Z,19.40
2018-03-31T03:40:50.910Z,17.67
2018-03-31T03:43:18.433Z,19.23
2018-03-31T03:45:45.950Z,20.17
2018-03-31T03:48:13.482Z,18.27
2018-03-31T03:50:40.990Z,20.88
2018-03-31T03:53:08.523Z,21.10
2018-03-31T03:55:36.038Z,20.98
2018-03-31T03:58:03.566Z,19.92
2018-03-31T04:00:31.150Z,22.70
2018-03-31T04:02:58.665Z,20.75
2018-03-31T04:05:26.174Z,21.40
2018-03-31T04:07:53.706Z,20.42
2018-03-31T04:10:21.231Z,19.10
2018-03-31T04:12:48.763Z,19.10
2018-03-31T04:15:16.283Z,20.17
2018-03-31T04:17:43.818Z,20.85
2018-03-31T04:20:11.332Z,20.17
2018-03-31T04:22:38.862Z,20.20
2018-03-31T04:25:06.370Z,20.90
2018-03-31T04:27:33.894Z,20.30
2018-03-31T04:30:01.415Z,20.02
2018-03-31T04:32:28.950Z,20.35
2018-03-31T04:34:56.462Z,21.67
2018-03-31T04:37:24.006Z,22.67
2018-03-31T04:39:51.515Z,22.40
2018-03-31T04:42:19.053Z,21.65
2018-03-31T04:44:46.583Z,21.95
2018-03-31T04:47:14.102Z,21.85
2018-03-31T04:49:41.623Z,23.85
2018-03-31T04:52:09.157Z,22.45
2018-03-31T04:54:36.667Z,24.05
2018-03-31T04:57:04.214Z,21.98
2018-03-31T04:59:31.720Z,22.83
2018-03-31T05:01:59.254Z,23.75
2018-03-31T05:04:26.762Z,21.60
2018-03-31T05:06:54.298Z,23.70
2018-03-31T05:09:21.817Z,23.60
2018-03-31T05:11:49.341Z,23.60
2018-03-31T05:14:16.852Z,24.15
2018-03-31T05:16:44.378Z,22.42
2018-03-31T05:19:11.917Z,22.65
2018-03-31T05:21:39.419Z,24.05
2018-03-31T05:24:06.955Z,24.45
2018-03-31T05:26:34.502Z,25.08
2018-03-31T05:29:02.052Z,26.33
2018-03-31T05:31:29.557Z,24.23
2018-03-31T05:33:57.091Z,24.63
2018-03-31T05:36:24.616Z,21.33
2018-03-31T05:38:52.155Z,24.92
2018-03-31T05:41:19.674Z,24.58
2018-03-31T05:43:47.206Z,23.95
2018-03-31T05:46:14.722Z,25.02
2018-03-31T05:48:42.257Z,23.95
2018-03-31T05:51:09.771Z,25.70
2018-03-31T05:53:37.305Z,25.80
2018-03-31T05:56:04.811Z,24.77
2018-03-31T05:58:32.339Z,25.25
2018-03-31T06:00:59.843Z,25.95
2018-03-31T06:03:27.375Z,27.15
2018-03-31T06:05:54.882Z,25.00
2018-03-31T06:08:22.425Z,25.45
2018-03-31T06:10:49.936Z,26.55
2018-03-31T06:13:17.469Z,26.70
2018-03-31T06:15:44.979Z,26.90
2018-03-31T06:18:12.509Z,25.45
2018-03-31T06:20:40.031Z,25.80
2018-03-31T06:23:07.561Z,28.00
2018-03-31T06:25:35.070Z,26.00
2018-03-31T06:28:02.766Z,28.38
2018-03-31T06:30:30.510Z,29.33
2018-03-31T06:32:58.098Z,30.20
2018-03-31T06:35:25.610Z,29.10
2018-03-31T06:37:53.143Z,29.87
2018-03-31T06:40:20.645Z,30.00
2018-03-31T06:42:48.179Z,29.33
2018-03-31T06:45:15.691Z,29.23
2018-03-31T06:47:43.214Z,29.87
2018-03-31T06:50:10.802Z,31.95
2018-03-31T06:52:38.489Z,31.10
2018-03-31T06:55:06.099Z,31.40
2018-03-31T06:57:33.612Z,32.30
2018-03-31T07:00:01.142Z,32.27
2018-03-31T07:02:28.650Z,32.10
2018-03-31T07:04:56.186Z,33.70
2018-03-31T07:07:23.689Z,31.40
2018-03-31T07:09:51.222Z,32.10
2018-03-31T07:12:18.729Z,31.30
2018-03-31T07:14:46.252Z,32.97
2018-03-31T07:17:13.758Z,32.30
2018-03-31T07:19:41.286Z,31.67
2018-03-31T07:22:08.790Z,32.43
2018-03-31T07:24:36.314Z,33.03
2018-03-31T07:27:03.823Z,31.40
2018-03-31T07:29:31.346Z,31.23
2018-03-31T07:31:58.854Z,33.73
2018-03-31T07:34:26.392Z,33.28
2018-03-31T07:36:53.895Z,35.33
2018-03-31T07:39:21.426Z,33.17
2018-03-31T07:41:48.931Z,34.03
2018-03-31T07:44:16.458Z,34.93
2018-03-31T07:46:43.963Z,32.90
2018-03-31T07:49:11.499Z,32.40
2018-03-31T07:51:39.001Z,33.60
2018-03-31T07:54:06.525Z,32.72
2018-03-31T07:56:34.031Z,32.20
2018-03-31T07:59:01.562Z,34.25
2018-03-31T08:01:29.066Z,33.55
2018-03-31T08:03:57.718Z,31.93
2018-03-31T08:06:26.139Z,31.93
2018-03-31T08:08:53.662Z,30.53
2018-03-31T08:11:21.174Z,31.53
2018-03-31T08:13:48.707Z,31.30
2018-03-31T08:16:17.126Z,28.30
2018-03-31T08:18:44.788Z,27.17
2018-03-31T08:21:12.286Z,25.10
2018-03-31T08:23:39.819Z,28.20
2018-03-31T08:26:07.324Z,27.83
2018-03-31T08:28:34.840Z,28.30
2018-03-31T08:31:02.948Z,28.52
2018-03-31T08:33:30.453Z,28.90
2018-03-31T08:35:57.977Z,33.67
2018-03-31T08:38:25.477Z,27.93
2018-03-31T08:40:53.014Z,26.80
2018-03-31T08:43:20.517Z,28.33
2018-03-31T08:45:48.038Z,28.05
2018-03-31T08:48:15.546Z,26.67
2018-03-31T08:50:43.075Z,27.93
2018-03-31T08:53:10.591Z,26.57
2018-03-31T08:55:38.106Z,29.07
2018-03-31T08:58:05.613Z,28.87
2018-03-31T09:00:33.138Z,27.10
2018-03-31T09:03:01.123Z,28.80
2018-03-31T09:05:28.646Z,30.12
2018-03-31T09:07:56.156Z,27.50
2018-03-31T09:10:23.677Z,28.30
2018-03-31T09:12:51.186Z,27.75
2018-03-31T09:15:18.714Z,27.27
2018-03-31T09:17:46.222Z,28.35
2018-03-31T09:20:13.750Z,27.50
2018-03-31T09:22:45.781Z,27.70
2018-03-31T09:25:08.790Z,29.03
2018-03-31T09:27:36.441Z,31.80
2018-03-31T09:30:03.987Z,32.50
2018-03-31T09:32:31.496Z,34.15
2018-03-31T09:34:59.687Z,31.45
2018-03-31T09:37:27.189Z,30.58
2018-03-31T09:39:54.732Z,34.90
2018-03-31T09:42:22.247Z,29.00
2018-03-31T09:44:49.774Z,30.63
2018-03-31T09:47:17.281Z,28.93
2018-03-31T09:49:44.814Z,33.17
2018-03-31T09:52:12.329Z,37.67
2018-03-31T09:54:39.870Z,36.30
2018-03-31T09:57:07.395Z,37.83
2018-03-31T09:59:34.930Z,43.27
2018-03-31T10:02:02.454Z,35.70
2018-03-31T10:04:29.969Z,59.87
2018-03-31T10:06:58.407Z,58.10
2018-03-31T10:09:25.914Z,49.13
2018-03-31T10:11:53.452Z,68.03
2018-03-31T10:14:20.963Z,53.50
2018-03-31T10:16:49.463Z,68.95
2018-03-31T10:19:16.975Z,60.70
2018-03-31T10:21:44.578Z,60.67
2018-03-31T10:24:12.278Z,51.63
2018-03-31T10:26:39.842Z,40.53
2018-03-31T10:29:07.349Z,34.47
2018-03-31T10:31:34.877Z,33.95
2018-03-31T10:34:02.457Z,37.43
2018-03-31T10:36:30.012Z,35.75
2018-03-31T10:38:57.534Z,36.20
2018-03-31T10:41:25.214Z,36.43
2018-03-31T10:43:52.971Z,35.03
2018-03-31T10:46:20.658Z,34.13
2018-03-31T10:48:48.327Z,30.03
2018-03-31T10:51:15.833Z,29.27
2018-03-31T10:53:43.343Z,28.33
2018-03-31T10:56:11.082Z,30.30
2018-03-31T10:58:38.993Z,30.47
2018-03-31T11:01:06.527Z,28.60
2018-03-31T11:03:34.038Z,30.70
2018-03-31T11:06:01.738Z,29.27
2018-03-31T11:08:29.246Z,30.47
2018-03-31T11:10:56.775Z,31.07
2018-03-31T11:13:24.286Z,32.10
2018-03-31T11:15:51.828Z,31.87
2018-03-31T11:18:19.331Z,33.77
2018-03-31T11:20:46.882Z,30.50
2018-03-31T11:23:14.413Z,31.40
2018-03-31T11:25:41.993Z,32.30
2018-03-31T11:28:09.567Z,32.58
2018-03-31T11:30:37.093Z,31.50
2018-03-31T11:33:04.598Z,30.30
2018-03-31T11:35:32.111Z,27.87
2018-03-31T11:37:59.651Z,29.12
2018-03-31T11:40:27.165Z,29.37
2018-03-31T11:42:54.732Z,30.80
2018-03-31T11:45:22.222Z,28.93
2018-03-31T11:47:49.745Z,29.50
2018-03-31T11:50:17.246Z,29.00
2018-03-31T11:52:44.908Z,29.33
2018-03-31T11:55:12.451Z,28.43
2018-03-31T11:57:39.981Z,28.48
2018-03-31T12:00:07.491Z,27.03
2018-03-31T12:02:35.022Z,24.70
2018-03-31T12:05:02.539Z,25.77
2018-03-31T12:07:30.059Z,25.63
2018-03-31T12:09:57.567Z,24.65
2018-03-31T12:12:25.102Z,25.48
2018-03-31T12:14:52.611Z,24.43
2018-03-31T12:17:20.144Z,25.87
2018-03-31T12:19:47.669Z,23.97
2018-03-31T12:22:15.239Z,22.93
2018-03-31T12:24:42.849Z,23.23
2018-03-31T12:27:10.532Z,22.77
2018-03-31T12:29:37.990Z,23.10
2018-03-31T12:32:05.513Z,24.03
2018-03-31T12:34:33.053Z,22.87
2018-03-31T12:37:00.582Z,23.20
2018-03-31T12:39:28.091Z,22.23
2018-03-31T12:41:55.626Z,29.90
2018-03-31T12:44:23.151Z,33.40
2018-03-31T12:46:51.656Z,129.53
2018-03-31T12:49:19.167Z,29.63
2018-03-31T12:51:46.728Z,24.55
2018-03-31T12:54:14.197Z,35.53
2018-03-31T12:56:41.729Z,28.77
2018-03-31T12:59:09.237Z,22.83
2018-03-31T13:01:36.762Z,23.50
2018-03-31T13:04:04.271Z,21.00
2018-03-31T13:06:31.929Z,23.90
2018-03-31T13:08:59.553Z,22.00
2018-03-31T13:11:27.282Z,23.57
2018-03-31T13:13:54.819Z,21.35
2018-03-31T13:16:22.337Z,22.30
2018-03-31T13:18:49.853Z,21.67
2018-03-31T13:21:18.329Z,24.00
2018-03-31T13:23:45.859Z,22.33
2018-03-31T13:26:13.367Z,25.10
2018-03-31T13:28:40.903Z,23.40
2018-03-31T13:31:08.419Z,22.95
2018-03-31T13:33:35.954Z,20.73
2018-03-31T13:36:03.502Z,22.13
2018-03-31T13:38:31.035Z,21.40
2018-03-31T13:40:58.551Z,23.00
2018-03-31T13:43:26.075Z,22.80
2018-03-31T13:45:53.595Z,23.38
2018-03-31T13:48:21.127Z,22.05
2018-03-31T13:50:48.654Z,21.77
2018-03-31T13:53:16.208Z,22.67
2018-03-31T13:55:43.702Z,24.00
2018-03-31T13:58:11.230Z,22.77
2018-03-31T14:00:38.758Z,24.20
2018-03-31T14:03:06.498Z,23.30
2018-03-31T14:05:34.196Z,23.95
2018-03-31T14:08:01.919Z,25.03
2018-03-31T14:10:29.608Z,25.80
2018-03-31T14:12:57.511Z,25.37
2018-03-31T14:15:26.094Z,24.90
2018-03-31T14:17:53.788Z,24.03
2018-03-31T14:20:21.512Z,23.03
2018-03-31T14:22:49.217Z,22.90
2018-03-31T14:25:16.754Z,22.13
2018-03-31T14:27:44.283Z,22.30
2018-03-31T14:30:11.790Z,22.10
2018-03-31T14:32:39.354Z,22.37
2018-03-31T14:35:06.886Z,22.45
2018-03-31T14:37:34.415Z,22.53
2018-03-31T14:40:01.933Z,22.80
2018-03-31T14:42:30.032Z,22.25
2018-03-31T14:44:57.534Z,19.27
2018-03-31T14:47:25.078Z,19.27
2018-03-31T14:49:52.583Z,17.43
2018-03-31T14:52:20.131Z,18.55
2018-03-31T14:54:47.667Z,18.50
2018-03-31T14:57:15.159Z,19.60
2018-03-31T14:59:42.687Z,19.50
2018-03-31T15:02:10.191Z,17.40
2018-03-31T15:04:37.717Z,18.90
2018-03-31T15:07:05.218Z,18.43
2018-03-31T15:09:32.757Z,18.80
2018-03-31T15:12:00.266Z,18.20
2018-03-31T15:14:27.794Z,19.40
2018-03-31T15:16:55.306Z,20.03
2018-03-31T15:19:22.838Z,19.80
2018-03-31T15:21:51.200Z,19.85
2018-03-31T15:24:18.730Z,21.43
2018-03-31T15:26:46.230Z,21.43
2018-03-31T15:29:13.758Z,21.83
2018-03-31T15:31:41.261Z,20.80
2018-03-31T15:34:08.803Z,21.13
2018-03-31T15:36:36.320Z,20.60
2018-03-31T15:39:03.842Z,23.48
2018-03-31T15:41:31.357Z,22.87
2018-03-31T15:43:58.906Z,23.70
2018-03-31T15:46:27.230Z,24.37
2018-03-31T15:48:54.754Z,22.50
2018-03-31T15:51:22.276Z,20.83
2018-03-31T15:53:49.797Z,23.13
2018-03-31T15:56:17.306Z,23.48
2018-03-31T15:58:44.858Z,38.33
2018-03-31T16:01:12.388Z,23.42
2018-03-31T16:03:39.921Z,54.77
2018-03-31T16:06:07.427Z,23.67
2018-03-31T16:08:34.954Z,25.43
2018-03-31T16:11:02.458Z,23.33
2018-03-31T16:13:29.985Z,23.67
2018-03-31T16:15:57.495Z,23.43
2018-03-31T16:18:25.643Z,20.73
2018-03-31T16:20:53.146Z,24.12
2018-03-31T16:23:20.834Z,20.90
2018-03-31T16:25:48.338Z,27.83
2018-03-31T16:28:15.844Z,19.00
2018-03-31T16:30:43.378Z,21.80
2018-03-31T16:33:10.886Z,19.53
2018-03-31T16:35:38.414Z,34.77
2018-03-31T16:38:05.925Z,24.73
2018-03-31T16:40:33.463Z,21.37
2018-03-31T16:43:00.958Z,21.27
2018-03-31T16:45:28.486Z,27.83
2018-03-31T16:47:55.986Z,22.33
2018-03-31T16:50:23.518Z,20.90
2018-03-31T16:52:51.037Z,19.20
2018-03-31T16:55:18.558Z,19.57
2018-03-31T16:57:46.066Z,18.50
2018-03-31T17:00:13.600Z,29.87
2018-03-31T17:02:41.106Z,24.07
2018-03-31T17:05:08.634Z,19.00
2018-03-31T17:07:36.138Z,24.70
2018-03-31T17:10:03.665Z,32.50
2018-03-31T17:12:31.184Z,54.25
2018-03-31T17:14:58.707Z,19.10
2018-03-31T17:17:26.215Z,30.37
2018-03-31T17:19:56.605Z,20.40
2018-03-31T17:22:24.618Z,22.67
2018-03-31T17:24:52.149Z,19.60
2018-03-31T17:27:20.023Z,28.97
2018-03-31T17:29:47.529Z,19.30
2018-03-31T17:32:15.030Z,23.67
2018-03-31T17:34:42.554Z,26.50
2018-03-31T17:37:10.062Z,17.75
2018-03-31T17:39:37.594Z,15.27
2018-03-31T17:42:05.098Z,18.17
2018-03-31T17:44:32.631Z,12.67
2018-03-31T17:47:00.130Z,16.17
2018-03-31T17:49:27.659Z,13.30
2018-03-31T17:51:55.157Z,13.93
2018-03-31T17:54:22.683Z,15.80
2018-03-31T17:56:50.190Z,12.53
2018-03-31T17:59:17.717Z,14.20
2018-03-31T18:01:45.228Z,11.85
2018-03-31T18:04:12.734Z,13.27
2018-03-31T18:06:41.258Z,14.40
2018-03-31T18:09:08.765Z,15.15
2018-03-31T18:11:36.289Z,17.00
2018-03-31T18:14:03.793Z,13.25
2018-03-31T18:16:31.331Z,12.60
2018-03-31T18:18:58.851Z,13.40
2018-03-31T18:21:26.374Z,12.93
2018-03-31T18:23:53.889Z,11.80
2018-03-31T18:26:21.414Z,13.20
2018-03-31T18:28:48.918Z,15.80
2018-03-31T18:31:16.446Z,16.50
2018-03-31T18:33:43.949Z,13.13
2018-03-31T18:36:11.474Z,14.20
2018-03-31T18:38:38.981Z,13.90
2018-03-31T18:41:06.506Z,23.17
2018-03-31T18:43:34.018Z,24.27
2018-03-31T18:46:01.546Z,25.53
2018-03-31T18:48:29.056Z,28.00
2018-03-31T18:50:56.586Z,28.35
2018-03-31T18:53:24.094Z,30.13
2018-03-31T18:55:51.632Z,32.97
2018-03-31T18:58:19.138Z,31.23
2018-03-31T19:00:46.662Z,28.10
2018-03-31T19:03:14.166Z,21.97
2018-03-31T19:05:41.694Z,24.53
2018-03-31T19:08:09.206Z,22.10
2018-03-31T19:10:36.730Z,22.30
2018-03-31T19:13:04.238Z,22.50
2018-03-31T19:15:31.765Z,23.40
2018-03-31T19:17:59.271Z,20.80
2018-03-31T19:20:26.801Z,19.63
2018-03-31T19:22:54.301Z,20.60
2018-03-31T19:25:27.462Z,20.27
2018-03-31T19:27:54.969Z,21.45
2018-03-31T19:30:22.492Z,20.30
2018-03-31T19:32:49.993Z,18.47
2018-03-31T19:35:18.550Z,15.90
2018-03-31T19:37:46.058Z,17.27
2018-03-31T19:40:13.614Z,16.83
2018-03-31T19:42:41.118Z,17.37
2018-03-31T19:45:08.651Z,18.07
2018-03-31T19:47:36.183Z,16.05
2018-03-31T19:50:03.762Z,17.00
2018-03-31T19:52:31.235Z,18.60
2018-03-31T19:54:58.742Z,20.97
2018-03-31T19:57:26.275Z,17.90
2018-03-31T19:59:53.777Z,18.37
2018-03-31T20:02:21.308Z,22.85
2018-03-31T20:04:48.819Z,24.70
2018-03-31T20:07:16.355Z,26.53
2018-03-31T20:09:43.866Z,23.93
2018-03-31T20:12:11.405Z,23.23
2018-03-31T20:14:38.930Z,24.90
2018-03-31T20:17:06.458Z,22.80
2018-03-31T20:19:33.970Z,15.87
2018-03-31T20:22:01.499Z,15.83
2018-03-31T20:24:28.997Z,18.23
2018-03-31T20:26:56.522Z,19.20
2018-03-31T20:29:24.034Z,19.00
2018-03-31T20:31:51.569Z,18.90
2018-03-31T20:34:19.082Z,18.12
2018-03-31T20:36:46.604Z,20.60
2018-03-31T20:39:14.834Z,18.20
2018-03-31T20:41:42.368Z,20.08
2018-03-31T20:44:09.880Z,20.00
2018-03-31T20:46:37.406Z,21.27
2018-03-31T20:49:04.917Z,20.50
2018-03-31T20:51:32.443Z,21.55
2018-03-31T20:53:59.956Z,20.95
2018-03-31T20:56:27.521Z,23.23
2018-03-31T20:58:54.990Z,23.30
2018-03-31T21:01:22.525Z,24.47
2018-03-31T21:03:50.037Z,25.07
2018-03-31T21:06:18.471Z,26.73
2018-03-31T21:08:45.979Z,29.00
2018-03-31T21:11:13.506Z,28.13
2018-03-31T21:13:41.014Z,31.80
2018-03-31T21:16:08.550Z,29.17
2018-03-31T21:18:36.109Z,26.10
2018-03-31T21:21:03.605Z,28.97
2018-03-31T21:23:31.133Z,27.27
2018-03-31T21:25:58.643Z,26.33
2018-03-31T21:28:27.234Z,25.58
2018-03-31T21:30:54.743Z,25.20
2018-03-31T21:33:22.273Z,23.87
2018-03-31T21:35:49.783Z,26.40
2018-03-31T21:38:17.311Z,27.83
2018-03-31T21:40:44.816Z,30.20
2018-03-31T21:43:12.343Z,27.25
2018-03-31T21:45:39.873Z,27.10
2018-03-31T21:48:07.402Z,28.70
2018-03-31T21:50:34.941Z,27.15
2018-03-31T21:53:02.486Z,26.17
2018-03-31T21:55:30.028Z,31.45
2018-03-31T21:57:57.528Z,31.80
2018-03-31T22:00:25.030Z,33.63
2018-03-31T22:02:52.559Z,34.80
2018-03-31T22:05:20.067Z,32.93
2018-03-31T22:07:47.591Z,34.23
2018-03-31T22:10:15.090Z,35.20
2018-03-31T22:12:43.605Z,35.42
2018-03-31T22:15:16.650Z,32.27
2018-03-31T22:17:44.170Z,33.50
2018-03-31T22:20:11.678Z,35.57
2018-03-31T22:22:39.206Z,35.93
2018-03-31T22:25:06.709Z,34.43
2018-03-31T22:27:34.235Z,34.67
2018-03-31T22:30:01.785Z,34.10
2018-03-31T22:32:29.308Z,34.90
2018-03-31T22:34:57.028Z,35.60
2018-03-31T22:37:24.558Z,34.90
2018-03-31T22:39:52.069Z,35.87
2018-03-31T22:42:19.589Z,37.63
2018-03-31T22:44:47.106Z,37.60
2018-03-31T22:47:14.639Z,40.10
2018-03-31T22:49:42.142Z,35.70
2018-03-31T22:52:09.665Z,39.50
2018-03-31T22:54:37.166Z,38.40
2018-03-31T22:57:04.705Z,36.83
2018-03-31T22:59:32.209Z,39.47
2018-03-31T23:01:59.713Z,35.90
2018-03-31T23:04:27.530Z,37.90
2018-03-31T23:06:55.314Z,39.47
2018-03-31T23:09:23.134Z,38.53
2018-03-31T23:11:50.922Z,34.00
2018-03-31T23:14:18.741Z,34.13
2018-03-31T23:16:46.521Z,35.65
2018-03-31T23:19:14.326Z,32.40
2018-03-31T23:21:42.106Z,33.55
2018-03-31T23:24:09.905Z,35.88
2018-03-31T23:26:37.682Z,34.30
2018-03-31T23:29:05.490Z,34.70
2018-03-31T23:31:33.265Z,35.72
2018-03-31T23:34:01.066Z,34.50
2018-03-31T23:36:28.849Z,32.83
2018-03-31T23:38:56.370Z,34.58
2018-03-31T23:41:23.874Z,34.63
2018-03-31T23:43:51.397Z,34.25
2018-03-31T23:46:18.902Z,34.60
2018-03-31T23:48:46.426Z,35.45
2018-03-31T23:51:13.934Z,37.70
2018-03-31T23:53:41.448Z,38.30
2018-03-31T23:56:08.962Z,37.60
2018-03-31T23:58:36.486Z,39.90
